sensor_id;sensor_type;location;lat;lon;timestamp;P1;durP1;ratioP1;P2;durP2;ratioP2
85133;SDS011;75590;42.690;23.356;2024-02-04T00:00:29;10.02;;;5.57;;
85133;SDS011;75590;42.690;23.356;2024-02-04T00:02:54;10.23;;;4.90;;
85133;SDS011;75590;42.690;23.356;2024-02-04T00:05:20;6.30;;;3.25;;
85133;SDS011;75590;42.690;23.356;2024-02-04T00:07:45;6.32;;;3.35;;
85133;SDS011;75590;42.690;23.356;2024-02-04T00:10:11;4.70;;;2.78;;
85133;SDS011;75590;42.690;23.356;2024-02-04T00:12:37;5.35;;;3.17;;
85133;SDS011;75590;42.690;23.356;2024-02-04T00:15:04;4.38;;;2.63;;
85133;SDS011;75590;42.690;23.356;2024-02-04T00:17:30;4.35;;;3.35;;
85133;SDS011;75590;42.690;23.356;2024-02-04T00:19:58;3.92;;;3.20;;
85133;SDS011;75590;42.690;23.356;2024-02-04T00:22:24;4.22;;;3.08;;
85133;SDS011;75590;42.690;23.356;2024-02-04T00:24:49;4.30;;;2.67;;
85133;SDS011;75590;42.690;23.356;2024-02-04T00:27:15;4.32;;;3.05;;
85133;SDS011;75590;42.690;23.356;2024-02-04T00:29:40;5.28;;;3.08;;
85133;SDS011;75590;42.690;23.356;2024-02-04T00:32:06;5.60;;;5.07;;
85133;SDS011;75590;42.690;23.356;2024-02-04T00:34:31;6.35;;;3.92;;
85133;SDS011;75590;42.690;23.356;2024-02-04T00:36:57;5.05;;;3.55;;
85133;SDS011;75590;42.690;23.356;2024-02-04T00:39:23;5.65;;;4.10;;
85133;SDS011;75590;42.690;23.356;2024-02-04T00:41:49;3.33;;;2.97;;
85133;SDS011;75590;42.690;23.356;2024-02-04T00:44:14;4.97;;;2.72;;
85133;SDS011;75590;42.690;23.356;2024-02-04T00:46:40;5.57;;;4.60;;
85133;SDS011;75590;42.690;23.356;2024-02-04T00:49:05;4.15;;;3.55;;
85133;SDS011;75590;42.690;23.356;2024-02-04T00:51:30;7.45;;;3.85;;
85133;SDS011;75590;42.690;23.356;2024-02-04T00:53:57;6.65;;;3.70;;
85133;SDS011;75590;42.690;23.356;2024-02-04T00:56:22;4.47;;;3.28;;
85133;SDS011;75590;42.690;23.356;2024-02-04T00:58:47;4.22;;;2.80;;
85133;SDS011;75590;42.690;23.356;2024-02-04T01:01:13;5.18;;;3.17;;
85133;SDS011;75590;42.690;23.356;2024-02-04T01:03:39;4.32;;;3.25;;
85133;SDS011;75590;42.690;23.356;2024-02-04T01:06:04;6.00;;;3.92;;
85133;SDS011;75590;42.690;23.356;2024-02-04T01:08:30;4.78;;;3.17;;
85133;SDS011;75590;42.690;23.356;2024-02-04T01:10:55;5.97;;;3.45;;
85133;SDS011;75590;42.690;23.356;2024-02-04T01:13:22;4.93;;;4.47;;
85133;SDS011;75590;42.690;23.356;2024-02-04T01:15:49;4.18;;;2.78;;
85133;SDS011;75590;42.690;23.356;2024-02-04T01:18:14;3.75;;;3.30;;
85133;SDS011;75590;42.690;23.356;2024-02-04T01:20:40;4.90;;;3.75;;
85133;SDS011;75590;42.690;23.356;2024-02-04T01:23:05;5.72;;;3.83;;
85133;SDS011;75590;42.690;23.356;2024-02-04T01:25:32;6.18;;;3.88;;
85133;SDS011;75590;42.690;23.356;2024-02-04T01:27:57;5.60;;;3.42;;
85133;SDS011;75590;42.690;23.356;2024-02-04T01:30:23;5.53;;;3.22;;
85133;SDS011;75590;42.690;23.356;2024-02-04T01:32:48;4.25;;;3.85;;
85133;SDS011;75590;42.690;23.356;2024-02-04T01:35:13;5.93;;;3.88;;
85133;SDS011;75590;42.690;23.356;2024-02-04T01:37:40;3.05;;;2.45;;
85133;SDS011;75590;42.690;23.356;2024-02-04T01:40:06;5.47;;;4.43;;
85133;SDS011;75590;42.690;23.356;2024-02-04T01:42:32;5.05;;;3.85;;
85133;SDS011;75590;42.690;23.356;2024-02-04T01:44:57;4.05;;;3.22;;
85133;SDS011;75590;42.690;23.356;2024-02-04T01:47:23;5.30;;;2.92;;
85133;SDS011;75590;42.690;23.356;2024-02-04T01:49:48;4.97;;;3.50;;
85133;SDS011;75590;42.690;23.356;2024-02-04T01:52:14;4.97;;;2.75;;
85133;SDS011;75590;42.690;23.356;2024-02-04T01:54:40;4.82;;;3.20;;
85133;SDS011;75590;42.690;23.356;2024-02-04T01:57:07;5.75;;;3.53;;
85133;SDS011;75590;42.690;23.356;2024-02-04T01:59:35;5.80;;;3.28;;
85133;SDS011;75590;42.690;23.356;2024-02-04T02:02:00;5.22;;;3.45;;
85133;SDS011;75590;42.690;23.356;2024-02-04T02:04:26;3.60;;;2.75;;
85133;SDS011;75590;42.690;23.356;2024-02-04T02:06:55;3.10;;;2.47;;
85133;SDS011;75590;42.690;23.356;2024-02-04T02:09:20;3.50;;;2.92;;
85133;SDS011;75590;42.690;23.356;2024-02-04T02:11:47;2.95;;;2.75;;
85133;SDS011;75590;42.690;23.356;2024-02-04T02:14:18;5.93;;;3.22;;
85133;SDS011;75590;42.690;23.356;2024-02-04T02:16:45;3.92;;;3.05;;
85133;SDS011;75590;42.690;23.356;2024-02-04T02:22:02;3.92;;;3.22;;
85133;SDS011;75590;42.690;23.356;2024-02-04T02:24:38;4.95;;;2.80;;
85133;SDS011;75590;42.690;23.356;2024-02-04T02:27:04;4.45;;;2.40;;
85133;SDS011;75590;42.690;23.356;2024-02-04T02:29:31;5.47;;;3.33;;
85133;SDS011;75590;42.690;23.356;2024-02-04T02:31:57;4.57;;;2.75;;
85133;SDS011;75590;42.690;23.356;2024-02-04T02:34:24;3.30;;;2.85;;
85133;SDS011;75590;42.690;23.356;2024-02-04T02:36:55;3.70;;;3.30;;
85133;SDS011;75590;42.690;23.356;2024-02-04T02:39:27;4.53;;;2.13;;
85133;SDS011;75590;42.690;23.356;2024-02-04T02:42:01;3.85;;;2.55;;
85133;SDS011;75590;42.690;23.356;2024-02-04T02:44:27;3.10;;;2.60;;
85133;SDS011;75590;42.690;23.356;2024-02-04T02:46:57;4.28;;;3.88;;
85133;SDS011;75590;42.690;23.356;2024-02-04T02:49:23;4.07;;;2.63;;
85133;SDS011;75590;42.690;23.356;2024-02-04T02:51:49;4.68;;;2.75;;
85133;SDS011;75590;42.690;23.356;2024-02-04T02:54:15;3.28;;;2.78;;
85133;SDS011;75590;42.690;23.356;2024-02-04T02:56:40;4.10;;;3.08;;
85133;SDS011;75590;42.690;23.356;2024-02-04T02:59:05;3.83;;;3.00;;
85133;SDS011;75590;42.690;23.356;2024-02-04T03:01:31;3.15;;;2.75;;
85133;SDS011;75590;42.690;23.356;2024-02-04T03:03:56;3.33;;;2.78;;
85133;SDS011;75590;42.690;23.356;2024-02-04T03:06:22;3.85;;;3.13;;
85133;SDS011;75590;42.690;23.356;2024-02-04T03:08:48;3.20;;;2.90;;
85133;SDS011;75590;42.690;23.356;2024-02-04T03:11:13;5.30;;;3.47;;
85133;SDS011;75590;42.690;23.356;2024-02-04T03:13:39;3.55;;;3.25;;
85133;SDS011;75590;42.690;23.356;2024-02-04T03:16:09;3.78;;;2.95;;
85133;SDS011;75590;42.690;23.356;2024-02-04T03:18:36;5.00;;;3.15;;
85133;SDS011;75590;42.690;23.356;2024-02-04T03:21:04;4.13;;;2.63;;
85133;SDS011;75590;42.690;23.356;2024-02-04T03:23:29;4.85;;;3.28;;
85133;SDS011;75590;42.690;23.356;2024-02-04T03:25:55;5.03;;;3.65;;
85133;SDS011;75590;42.690;23.356;2024-02-04T03:28:20;5.88;;;3.53;;
85133;SDS011;75590;42.690;23.356;2024-02-04T03:30:46;4.63;;;2.80;;
85133;SDS011;75590;42.690;23.356;2024-02-04T03:33:11;3.17;;;2.83;;
85133;SDS011;75590;42.690;23.356;2024-02-04T03:35:37;5.68;;;4.00;;
85133;SDS011;75590;42.690;23.356;2024-02-04T03:38:02;4.18;;;3.53;;
85133;SDS011;75590;42.690;23.356;2024-02-04T03:40:28;4.28;;;3.03;;
85133;SDS011;75590;42.690;23.356;2024-02-04T03:42:53;4.57;;;3.40;;
85133;SDS011;75590;42.690;23.356;2024-02-04T03:45:19;5.22;;;4.00;;
85133;SDS011;75590;42.690;23.356;2024-02-04T03:47:44;5.60;;;3.63;;
85133;SDS011;75590;42.690;23.356;2024-02-04T03:50:10;6.13;;;3.75;;
85133;SDS011;75590;42.690;23.356;2024-02-04T03:52:36;4.30;;;3.45;;
85133;SDS011;75590;42.690;23.356;2024-02-04T03:55:01;4.35;;;3.42;;
85133;SDS011;75590;42.690;23.356;2024-02-04T03:57:27;5.82;;;2.95;;
85133;SDS011;75590;42.690;23.356;2024-02-04T03:59:52;5.25;;;2.97;;
85133;SDS011;75590;42.690;23.356;2024-02-04T04:02:18;5.55;;;3.25;;
85133;SDS011;75590;42.690;23.356;2024-02-04T04:04:43;3.80;;;2.88;;
85133;SDS011;75590;42.690;23.356;2024-02-04T04:07:12;3.50;;;2.47;;
85133;SDS011;75590;42.690;23.356;2024-02-04T04:09:38;3.38;;;2.83;;
85133;SDS011;75590;42.690;23.356;2024-02-04T04:12:03;3.90;;;2.42;;
85133;SDS011;75590;42.690;23.356;2024-02-04T04:14:29;3.42;;;3.05;;
85133;SDS011;75590;42.690;23.356;2024-02-04T04:16:54;3.35;;;2.92;;
85133;SDS011;75590;42.690;23.356;2024-02-04T04:19:20;4.90;;;2.58;;
85133;SDS011;75590;42.690;23.356;2024-02-04T04:21:45;4.00;;;3.08;;
85133;SDS011;75590;42.690;23.356;2024-02-04T04:24:11;3.63;;;2.95;;
85133;SDS011;75590;42.690;23.356;2024-02-04T04:26:36;4.43;;;3.15;;
85133;SDS011;75590;42.690;23.356;2024-02-04T04:29:02;3.72;;;3.03;;
85133;SDS011;75590;42.690;23.356;2024-02-04T04:31:28;4.93;;;3.05;;
85133;SDS011;75590;42.690;23.356;2024-02-04T04:33:54;3.70;;;2.67;;
85133;SDS011;75590;42.690;23.356;2024-02-04T04:36:19;5.20;;;3.67;;
85133;SDS011;75590;42.690;23.356;2024-02-04T04:38:45;3.25;;;2.95;;
85133;SDS011;75590;42.690;23.356;2024-02-04T04:41:14;4.82;;;3.42;;
85133;SDS011;75590;42.690;23.356;2024-02-04T04:43:40;3.65;;;3.33;;
85133;SDS011;75590;42.690;23.356;2024-02-04T04:46:05;3.45;;;2.55;;
85133;SDS011;75590;42.690;23.356;2024-02-04T04:48:31;3.95;;;3.58;;
85133;SDS011;75590;42.690;23.356;2024-02-04T04:50:56;6.13;;;3.30;;
85133;SDS011;75590;42.690;23.356;2024-02-04T04:53:22;3.97;;;3.22;;
85133;SDS011;75590;42.690;23.356;2024-02-04T04:55:47;4.55;;;3.65;;
85133;SDS011;75590;42.690;23.356;2024-02-04T04:58:13;3.55;;;3.25;;
85133;SDS011;75590;42.690;23.356;2024-02-04T05:00:38;4.05;;;2.83;;
85133;SDS011;75590;42.690;23.356;2024-02-04T05:03:04;3.97;;;3.13;;
85133;SDS011;75590;42.690;23.356;2024-02-04T05:05:29;2.83;;;2.63;;
85133;SDS011;75590;42.690;23.356;2024-02-04T05:07:55;3.05;;;2.53;;
85133;SDS011;75590;42.690;23.356;2024-02-04T05:10:20;4.53;;;3.00;;
85133;SDS011;75590;42.690;23.356;2024-02-04T05:12:46;4.13;;;3.72;;
85133;SDS011;75590;42.690;23.356;2024-02-04T05:15:11;3.78;;;3.45;;
85133;SDS011;75590;42.690;23.356;2024-02-04T05:17:37;4.45;;;2.92;;
85133;SDS011;75590;42.690;23.356;2024-02-04T05:20:03;4.57;;;3.92;;
85133;SDS011;75590;42.690;23.356;2024-02-04T05:22:29;3.58;;;3.13;;
85133;SDS011;75590;42.690;23.356;2024-02-04T05:24:56;3.05;;;2.67;;
85133;SDS011;75590;42.690;23.356;2024-02-04T05:27:21;3.25;;;2.95;;
85133;SDS011;75590;42.690;23.356;2024-02-04T05:29:47;3.97;;;3.17;;
85133;SDS011;75590;42.690;23.356;2024-02-04T05:32:12;4.05;;;2.95;;
85133;SDS011;75590;42.690;23.356;2024-02-04T05:34:38;4.38;;;2.90;;
85133;SDS011;75590;42.690;23.356;2024-02-04T05:37:03;4.03;;;3.35;;
85133;SDS011;75590;42.690;23.356;2024-02-04T05:39:28;4.22;;;2.95;;
85133;SDS011;75590;42.690;23.356;2024-02-04T05:41:54;3.65;;;3.13;;
85133;SDS011;75590;42.690;23.356;2024-02-04T05:44:19;3.15;;;2.78;;
85133;SDS011;75590;42.690;23.356;2024-02-04T05:46:45;2.75;;;2.50;;
85133;SDS011;75590;42.690;23.356;2024-02-04T05:49:11;4.93;;;3.00;;
85133;SDS011;75590;42.690;23.356;2024-02-04T05:51:39;2.03;;;1.73;;
85133;SDS011;75590;42.690;23.356;2024-02-04T05:54:05;4.22;;;2.38;;
85133;SDS011;75590;42.690;23.356;2024-02-04T05:56:31;3.40;;;2.92;;
85133;SDS011;75590;42.690;23.356;2024-02-04T05:58:57;5.55;;;3.25;;
85133;SDS011;75590;42.690;23.356;2024-02-04T06:01:23;4.13;;;3.00;;
85133;SDS011;75590;42.690;23.356;2024-02-04T06:03:48;3.95;;;2.85;;
85133;SDS011;75590;42.690;23.356;2024-02-04T06:06:14;5.30;;;3.88;;
85133;SDS011;75590;42.690;23.356;2024-02-04T06:08:44;5.20;;;3.35;;
85133;SDS011;75590;42.690;23.356;2024-02-04T06:11:11;5.03;;;3.72;;
85133;SDS011;75590;42.690;23.356;2024-02-04T06:13:41;6.03;;;4.38;;
85133;SDS011;75590;42.690;23.356;2024-02-04T06:16:07;5.07;;;4.40;;
85133;SDS011;75590;42.690;23.356;2024-02-04T06:18:32;5.10;;;4.35;;
85133;SDS011;75590;42.690;23.356;2024-02-04T06:21:02;4.78;;;4.10;;
85133;SDS011;75590;42.690;23.356;2024-02-04T06:23:28;8.48;;;4.25;;
85133;SDS011;75590;42.690;23.356;2024-02-04T06:25:54;7.60;;;4.75;;
85133;SDS011;75590;42.690;23.356;2024-02-04T06:28:20;5.18;;;3.35;;
85133;SDS011;75590;42.690;23.356;2024-02-04T06:30:45;6.40;;;4.10;;
85133;SDS011;75590;42.690;23.356;2024-02-04T06:33:11;6.00;;;3.58;;
85133;SDS011;75590;42.690;23.356;2024-02-04T06:35:36;4.50;;;3.33;;
85133;SDS011;75590;42.690;23.356;2024-02-04T06:38:02;3.80;;;3.05;;
85133;SDS011;75590;42.690;23.356;2024-02-04T06:40:28;6.15;;;3.60;;
85133;SDS011;75590;42.690;23.356;2024-02-04T06:42:53;5.32;;;3.05;;
85133;SDS011;75590;42.690;23.356;2024-02-04T06:45:19;3.60;;;3.30;;
85133;SDS011;75590;42.690;23.356;2024-02-04T06:47:44;3.25;;;2.67;;
85133;SDS011;75590;42.690;23.356;2024-02-04T06:50:10;4.90;;;3.40;;
85133;SDS011;75590;42.690;23.356;2024-02-04T06:52:42;5.07;;;3.10;;
85133;SDS011;75590;42.690;23.356;2024-02-04T06:55:11;4.35;;;3.65;;
85133;SDS011;75590;42.690;23.356;2024-02-04T06:57:36;3.40;;;3.10;;
85133;SDS011;75590;42.690;23.356;2024-02-04T07:00:02;3.85;;;3.15;;
85133;SDS011;75590;42.690;23.356;2024-02-04T07:02:31;5.05;;;2.80;;
85133;SDS011;75590;42.690;23.356;2024-02-04T07:04:57;3.35;;;3.05;;
85133;SDS011;75590;42.690;23.356;2024-02-04T07:07:22;4.20;;;3.42;;
85133;SDS011;75590;42.690;23.356;2024-02-04T07:09:48;3.42;;;2.78;;
85133;SDS011;75590;42.690;23.356;2024-02-04T07:12:13;3.88;;;3.05;;
85133;SDS011;75590;42.690;23.356;2024-02-04T07:14:39;5.25;;;3.30;;
85133;SDS011;75590;42.690;23.356;2024-02-04T07:17:04;3.30;;;2.85;;
85133;SDS011;75590;42.690;23.356;2024-02-04T07:19:31;5.57;;;2.85;;
85133;SDS011;75590;42.690;23.356;2024-02-04T07:21:57;4.18;;;2.95;;
85133;SDS011;75590;42.690;23.356;2024-02-04T07:24:22;3.13;;;2.47;;
85133;SDS011;75590;42.690;23.356;2024-02-04T07:26:48;4.63;;;3.15;;
85133;SDS011;75590;42.690;23.356;2024-02-04T07:29:14;4.82;;;3.42;;
85133;SDS011;75590;42.690;23.356;2024-02-04T07:31:42;3.30;;;3.05;;
85133;SDS011;75590;42.690;23.356;2024-02-04T07:34:08;5.95;;;3.50;;
85133;SDS011;75590;42.690;23.356;2024-02-04T07:36:34;4.20;;;3.60;;
85133;SDS011;75590;42.690;23.356;2024-02-04T07:38:59;3.53;;;3.22;;
85133;SDS011;75590;42.690;23.356;2024-02-04T07:41:25;4.15;;;3.00;;
85133;SDS011;75590;42.690;23.356;2024-02-04T07:43:51;3.60;;;2.53;;
85133;SDS011;75590;42.690;23.356;2024-02-04T07:46:17;5.53;;;3.28;;
85133;SDS011;75590;42.690;23.356;2024-02-04T07:48:42;4.13;;;2.78;;
85133;SDS011;75590;42.690;23.356;2024-02-04T07:51:08;4.60;;;3.63;;
85133;SDS011;75590;42.690;23.356;2024-02-04T07:53:33;2.85;;;2.65;;
85133;SDS011;75590;42.690;23.356;2024-02-04T07:56:01;5.38;;;2.95;;
85133;SDS011;75590;42.690;23.356;2024-02-04T07:58:28;3.38;;;2.75;;
85133;SDS011;75590;42.690;23.356;2024-02-04T08:00:54;3.95;;;3.55;;
85133;SDS011;75590;42.690;23.356;2024-02-04T08:03:20;3.53;;;2.42;;
85133;SDS011;75590;42.690;23.356;2024-02-04T08:05:45;3.47;;;2.08;;
85133;SDS011;75590;42.690;23.356;2024-02-04T08:08:11;3.78;;;2.85;;
85133;SDS011;75590;42.690;23.356;2024-02-04T08:10:37;5.25;;;3.47;;
85133;SDS011;75590;42.690;23.356;2024-02-04T08:13:02;3.47;;;2.50;;
85133;SDS011;75590;42.690;23.356;2024-02-04T08:15:28;4.07;;;2.88;;
85133;SDS011;75590;42.690;23.356;2024-02-04T08:17:54;4.45;;;3.33;;
85133;SDS011;75590;42.690;23.356;2024-02-04T08:20:19;3.67;;;2.33;;
85133;SDS011;75590;42.690;23.356;2024-02-04T08:22:46;3.85;;;2.78;;
85133;SDS011;75590;42.690;23.356;2024-02-04T08:25:12;5.13;;;2.83;;
85133;SDS011;75590;42.690;23.356;2024-02-04T08:27:37;3.58;;;2.78;;
85133;SDS011;75590;42.690;23.356;2024-02-04T08:30:06;4.65;;;3.30;;
85133;SDS011;75590;42.690;23.356;2024-02-04T08:32:32;3.67;;;2.95;;
85133;SDS011;75590;42.690;23.356;2024-02-04T08:34:58;4.43;;;3.33;;
85133;SDS011;75590;42.690;23.356;2024-02-04T08:37:23;4.20;;;3.30;;
85133;SDS011;75590;42.690;23.356;2024-02-04T08:39:49;5.10;;;3.08;;
85133;SDS011;75590;42.690;23.356;2024-02-04T08:42:15;3.45;;;3.03;;
85133;SDS011;75590;42.690;23.356;2024-02-04T08:44:40;2.78;;;2.17;;
85133;SDS011;75590;42.690;23.356;2024-02-04T08:47:06;3.95;;;2.58;;
85133;SDS011;75590;42.690;23.356;2024-02-04T08:49:37;3.00;;;1.85;;
85133;SDS011;75590;42.690;23.356;2024-02-04T08:52:03;3.30;;;2.22;;
85133;SDS011;75590;42.690;23.356;2024-02-04T08:54:28;4.25;;;2.42;;
85133;SDS011;75590;42.690;23.356;2024-02-04T08:56:54;2.40;;;2.10;;
85133;SDS011;75590;42.690;23.356;2024-02-04T08:59:19;5.28;;;3.40;;
85133;SDS011;75590;42.690;23.356;2024-02-04T09:01:45;3.22;;;2.92;;
85133;SDS011;75590;42.690;23.356;2024-02-04T09:04:11;3.60;;;3.30;;
85133;SDS011;75590;42.690;23.356;2024-02-04T09:06:44;2.95;;;2.45;;
85133;SDS011;75590;42.690;23.356;2024-02-04T09:09:09;2.08;;;1.73;;
85133;SDS011;75590;42.690;23.356;2024-02-04T09:11:35;3.78;;;2.10;;
85133;SDS011;75590;42.690;23.356;2024-02-04T09:14:00;3.83;;;1.92;;
85133;SDS011;75590;42.690;23.356;2024-02-04T09:16:29;2.17;;;1.60;;
85133;SDS011;75590;42.690;23.356;2024-02-04T09:18:54;2.67;;;2.28;;
85133;SDS011;75590;42.690;23.356;2024-02-04T09:21:20;3.20;;;2.75;;
85133;SDS011;75590;42.690;23.356;2024-02-04T09:23:45;3.25;;;1.40;;
85133;SDS011;75590;42.690;23.356;2024-02-04T09:26:11;2.00;;;1.48;;
85133;SDS011;75590;42.690;23.356;2024-02-04T09:28:37;3.92;;;1.85;;
85133;SDS011;75590;42.690;23.356;2024-02-04T09:31:03;2.47;;;1.55;;
85133;SDS011;75590;42.690;23.356;2024-02-04T09:33:28;3.80;;;1.85;;
85133;SDS011;75590;42.690;23.356;2024-02-04T09:35:54;1.70;;;1.60;;
85133;SDS011;75590;42.690;23.356;2024-02-04T09:38:20;4.43;;;1.83;;
85133;SDS011;75590;42.690;23.356;2024-02-04T09:40:46;2.63;;;1.92;;
85133;SDS011;75590;42.690;23.356;2024-02-04T09:43:11;3.33;;;2.47;;
85133;SDS011;75590;42.690;23.356;2024-02-04T09:45:38;2.55;;;2.17;;
85133;SDS011;75590;42.690;23.356;2024-02-04T09:48:03;2.40;;;1.58;;
85133;SDS011;75590;42.690;23.356;2024-02-04T09:50:29;2.90;;;1.77;;
85133;SDS011;75590;42.690;23.356;2024-02-04T09:52:58;2.78;;;2.20;;
85133;SDS011;75590;42.690;23.356;2024-02-04T09:55:27;2.50;;;2.28;;
85133;SDS011;75590;42.690;23.356;2024-02-04T09:57:54;5.43;;;1.45;;
85133;SDS011;75590;42.690;23.356;2024-02-04T10:00:20;2.10;;;2.00;;
85133;SDS011;75590;42.690;23.356;2024-02-04T10:02:46;7.28;;;2.15;;
85133;SDS011;75590;42.690;23.356;2024-02-04T10:05:12;3.70;;;2.53;;
85133;SDS011;75590;42.690;23.356;2024-02-04T10:07:38;3.10;;;2.72;;
85133;SDS011;75590;42.690;23.356;2024-02-04T10:10:05;2.45;;;1.90;;
85133;SDS011;75590;42.690;23.356;2024-02-04T10:12:31;1.95;;;1.80;;
85133;SDS011;75590;42.690;23.356;2024-02-04T10:14:57;2.28;;;2.03;;
85133;SDS011;75590;42.690;23.356;2024-02-04T10:17:24;1.75;;;1.65;;
85133;SDS011;75590;42.690;23.356;2024-02-04T10:19:50;3.15;;;2.38;;
85133;SDS011;75590;42.690;23.356;2024-02-04T10:22:16;2.28;;;1.90;;
85133;SDS011;75590;42.690;23.356;2024-02-04T10:24:44;5.68;;;2.25;;
85133;SDS011;75590;42.690;23.356;2024-02-04T10:27:12;2.42;;;2.20;;
85133;SDS011;75590;42.690;23.356;2024-02-04T10:29:42;2.55;;;1.40;;
85133;SDS011;75590;42.690;23.356;2024-02-04T10:32:08;3.60;;;2.25;;
85133;SDS011;75590;42.690;23.356;2024-02-04T10:34:36;2.92;;;2.65;;
85133;SDS011;75590;42.690;23.356;2024-02-04T10:37:02;5.75;;;2.70;;
85133;SDS011;75590;42.690;23.356;2024-02-04T10:39:28;2.05;;;1.90;;
85133;SDS011;75590;42.690;23.356;2024-02-04T10:41:55;1.90;;;1.65;;
85133;SDS011;75590;42.690;23.356;2024-02-04T10:44:22;1.95;;;1.75;;
85133;SDS011;75590;42.690;23.356;2024-02-04T10:46:49;2.20;;;1.90;;
85133;SDS011;75590;42.690;23.356;2024-02-04T10:49:16;2.85;;;1.60;;
85133;SDS011;75590;42.690;23.356;2024-02-04T10:51:43;2.60;;;2.20;;
85133;SDS011;75590;42.690;23.356;2024-02-04T10:54:10;5.15;;;1.85;;
85133;SDS011;75590;42.690;23.356;2024-02-04T10:56:37;2.40;;;1.90;;
85133;SDS011;75590;42.690;23.356;2024-02-04T10:59:08;1.90;;;1.80;;
85133;SDS011;75590;42.690;23.356;2024-02-04T11:01:37;5.45;;;2.03;;
85133;SDS011;75590;42.690;23.356;2024-02-04T11:04:04;2.28;;;1.77;;
85133;SDS011;75590;42.690;23.356;2024-02-04T11:06:30;3.42;;;2.33;;
85133;SDS011;75590;42.690;23.356;2024-02-04T11:08:56;2.92;;;1.60;;
85133;SDS011;75590;42.690;23.356;2024-02-04T11:11:22;3.10;;;2.80;;
85133;SDS011;75590;42.690;23.356;2024-02-04T11:13:49;2.75;;;1.95;;
85133;SDS011;75590;42.690;23.356;2024-02-04T11:16:21;2.00;;;1.80;;
85133;SDS011;75590;42.690;23.356;2024-02-04T11:19:03;2.70;;;1.23;;
85133;SDS011;75590;42.690;23.356;2024-02-04T11:27:16;2.10;;;1.42;;
85133;SDS011;75590;42.690;23.356;2024-02-04T11:29:41;2.38;;;2.17;;
85133;SDS011;75590;42.690;23.356;2024-02-04T11:32:07;2.15;;;1.83;;
85133;SDS011;75590;42.690;23.356;2024-02-04T11:34:33;3.15;;;1.88;;
85133;SDS011;75590;42.690;23.356;2024-02-04T11:36:59;2.58;;;1.80;;
85133;SDS011;75590;42.690;23.356;2024-02-04T11:39:31;3.70;;;3.40;;
85133;SDS011;75590;42.690;23.356;2024-02-04T11:41:57;2.40;;;2.20;;
85133;SDS011;75590;42.690;23.356;2024-02-04T11:44:23;13.13;;;2.63;;
85133;SDS011;75590;42.690;23.356;2024-02-04T11:46:50;1.90;;;1.70;;
85133;SDS011;75590;42.690;23.356;2024-02-04T11:49:16;2.63;;;2.42;;
85133;SDS011;75590;42.690;23.356;2024-02-04T11:51:45;2.20;;;1.77;;
85133;SDS011;75590;42.690;23.356;2024-02-04T11:54:13;2.10;;;1.77;;
85133;SDS011;75590;42.690;23.356;2024-02-04T11:56:41;1.83;;;1.73;;
85133;SDS011;75590;42.690;23.356;2024-02-04T11:59:08;2.75;;;2.30;;
85133;SDS011;75590;42.690;23.356;2024-02-04T12:01:34;3.83;;;3.08;;
85133;SDS011;75590;42.690;23.356;2024-02-04T12:04:16;2.72;;;2.50;;
85133;SDS011;75590;42.690;23.356;2024-02-04T12:06:43;3.78;;;2.20;;
85133;SDS011;75590;42.690;23.356;2024-02-04T12:09:09;1.88;;;1.77;;
85133;SDS011;75590;42.690;23.356;2024-02-04T12:11:38;2.20;;;2.10;;
85133;SDS011;75590;42.690;23.356;2024-02-04T12:14:04;2.53;;;1.27;;
85133;SDS011;75590;42.690;23.356;2024-02-04T12:16:31;2.05;;;1.95;;
85133;SDS011;75590;42.690;23.356;2024-02-04T12:18:57;3.65;;;2.10;;
85133;SDS011;75590;42.690;23.356;2024-02-04T12:21:24;1.85;;;1.75;;
85133;SDS011;75590;42.690;23.356;2024-02-04T12:23:50;2.40;;;1.98;;
85133;SDS011;75590;42.690;23.356;2024-02-04T12:26:18;2.88;;;2.67;;
85133;SDS011;75590;42.690;23.356;2024-02-04T12:28:43;1.70;;;1.50;;
85133;SDS011;75590;42.690;23.356;2024-02-04T12:31:19;3.30;;;3.00;;
85133;SDS011;75590;42.690;23.356;2024-02-04T12:33:55;2.47;;;2.28;;
85133;SDS011;75590;42.690;23.356;2024-02-04T12:36:29;2.30;;;2.10;;
85133;SDS011;75590;42.690;23.356;2024-02-04T12:38:56;2.40;;;2.20;;
85133;SDS011;75590;42.690;23.356;2024-02-04T12:41:24;3.38;;;1.67;;
85133;SDS011;75590;42.690;23.356;2024-02-04T12:43:57;1.83;;;1.70;;
85133;SDS011;75590;42.690;23.356;2024-02-04T12:46:28;2.35;;;2.17;;
85133;SDS011;75590;42.690;23.356;2024-02-04T12:48:55;2.85;;;2.50;;
85133;SDS011;75590;42.690;23.356;2024-02-04T12:51:25;2.55;;;2.10;;
85133;SDS011;75590;42.690;23.356;2024-02-04T12:54:12;3.53;;;2.80;;
85133;SDS011;75590;42.690;23.356;2024-02-04T12:56:42;2.42;;;2.20;;
85133;SDS011;75590;42.690;23.356;2024-02-04T12:59:22;2.70;;;1.30;;
85133;SDS011;75590;42.690;23.356;2024-02-04T13:02:03;2.55;;;2.35;;
85133;SDS011;75590;42.690;23.356;2024-02-04T13:04:34;2.50;;;2.30;;
85133;SDS011;75590;42.690;23.356;2024-02-04T13:07:01;2.13;;;1.92;;
85133;SDS011;75590;42.690;23.356;2024-02-04T13:09:26;2.60;;;2.40;;
85133;SDS011;75590;42.690;23.356;2024-02-04T13:11:52;3.17;;;2.47;;
85133;SDS011;75590;42.690;23.356;2024-02-04T13:14:17;2.28;;;2.00;;
85133;SDS011;75590;42.690;23.356;2024-02-04T13:16:43;2.78;;;2.53;;
85133;SDS011;75590;42.690;23.356;2024-02-04T13:19:09;2.75;;;2.35;;
85133;SDS011;75590;42.690;23.356;2024-02-04T13:21:34;3.13;;;2.40;;
85133;SDS011;75590;42.690;23.356;2024-02-04T13:23:59;4.28;;;2.75;;
85133;SDS011;75590;42.690;23.356;2024-02-04T13:26:25;2.63;;;2.30;;
85133;SDS011;75590;42.690;23.356;2024-02-04T13:28:51;2.05;;;1.60;;
85133;SDS011;75590;42.690;23.356;2024-02-04T13:31:17;2.30;;;2.10;;
85133;SDS011;75590;42.690;23.356;2024-02-04T13:33:42;2.67;;;2.28;;
85133;SDS011;75590;42.690;23.356;2024-02-04T13:36:08;3.05;;;2.10;;
85133;SDS011;75590;42.690;23.356;2024-02-04T13:38:34;2.13;;;1.92;;
85133;SDS011;75590;42.690;23.356;2024-02-04T13:41:00;2.67;;;2.47;;
85133;SDS011;75590;42.690;23.356;2024-02-04T13:43:26;2.40;;;2.20;;
85133;SDS011;75590;42.690;23.356;2024-02-04T13:45:52;2.53;;;2.22;;
85133;SDS011;75590;42.690;23.356;2024-02-04T13:48:19;3.60;;;2.67;;
85133;SDS011;75590;42.690;23.356;2024-02-04T13:50:47;2.67;;;2.05;;
85133;SDS011;75590;42.690;23.356;2024-02-04T13:53:12;2.38;;;2.08;;
85133;SDS011;75590;42.690;23.356;2024-02-04T13:55:38;2.20;;;1.98;;
85133;SDS011;75590;42.690;23.356;2024-02-04T13:58:04;2.63;;;2.22;;
85133;SDS011;75590;42.690;23.356;2024-02-04T14:00:30;4.55;;;2.60;;
85133;SDS011;75590;42.690;23.356;2024-02-04T14:02:55;2.13;;;1.63;;
85133;SDS011;75590;42.690;23.356;2024-02-04T14:05:21;3.50;;;2.30;;
85133;SDS011;75590;42.690;23.356;2024-02-04T14:07:46;2.65;;;2.45;;
85133;SDS011;75590;42.690;23.356;2024-02-04T14:10:12;3.20;;;2.10;;
85133;SDS011;75590;42.690;23.356;2024-02-04T14:12:39;2.25;;;2.05;;
85133;SDS011;75590;42.690;23.356;2024-02-04T14:15:09;3.85;;;3.05;;
85133;SDS011;75590;42.690;23.356;2024-02-04T14:17:34;2.50;;;1.65;;
85133;SDS011;75590;42.690;23.356;2024-02-04T14:20:00;1.90;;;1.52;;
85133;SDS011;75590;42.690;23.356;2024-02-04T14:22:26;3.78;;;2.40;;
85133;SDS011;75590;42.690;23.356;2024-02-04T14:24:52;2.80;;;2.60;;
85133;SDS011;75590;42.690;23.356;2024-02-04T14:27:18;3.00;;;2.28;;
85133;SDS011;75590;42.690;23.356;2024-02-04T14:29:43;2.05;;;1.85;;
85133;SDS011;75590;42.690;23.356;2024-02-04T14:32:09;3.33;;;2.35;;
85133;SDS011;75590;42.690;23.356;2024-02-04T14:34:35;2.03;;;1.75;;
85133;SDS011;75590;42.690;23.356;2024-02-04T14:37:00;3.13;;;2.80;;